createdAt,value
2022-10-17T00:00:39.438Z,101037.56
2022-10-17T00:03:06.587Z,101037.56
2022-10-17T00:05:33.580Z,101034.06
2022-10-17T00:08:00.132Z,101035.81
2022-10-17T00:10:26.611Z,101041.13
2022-10-17T00:12:53.204Z,101044.66
2022-10-17T00:15:20.937Z,101043.75
2022-10-17T00:17:50.332Z,101040.19
2022-10-17T00:20:16.974Z,101041.06
2022-10-17T00:22:43.871Z,101042.84
2022-10-17T00:25:10.726Z,101031.28
2022-10-17T00:27:41.792Z,101021.56
2022-10-17T00:30:13.296Z,101026.88
2022-10-17T00:32:40.101Z,101018.94
2022-10-17T00:35:08.301Z,101023.34
2022-10-17T00:37:38.503Z,101024.22
2022-10-17T00:40:06.998Z,101027.72
2022-10-17T00:42:34.032Z,101021.50
2022-10-17T00:45:28.845Z,101016.16
2022-10-17T00:48:00.735Z,101015.25
2022-10-17T00:50:28.216Z,101017.94
2022-10-17T00:53:01.434Z,101009.94
2022-10-17T00:55:31.750Z,101016.16
2022-10-17T00:58:02.579Z,101010.84
2022-10-17T01:00:29.462Z,101014.38
2022-10-17T01:02:57.870Z,101001.97
2022-10-17T01:05:24.517Z,100995.75
2022-10-17T01:07:52.849Z,100998.38
2022-10-17T01:10:20.816Z,101000.13
2022-10-17T01:13:00.316Z,101004.53
2022-10-17T01:15:45.295Z,100997.44
2022-10-17T01:18:30.057Z,101008.94
2022-10-17T01:21:15.456Z,101002.72
2022-10-17T01:24:32.155Z,100991.16
2022-10-17T01:26:58.856Z,100994.72
2022-10-17T01:29:46.910Z,100992.91
2022-10-17T01:32:18.758Z,100993.75
2022-10-17T01:34:57.431Z,100991.94
2022-10-17T01:37:56.099Z,100998.09
2022-10-17T01:40:28.170Z,100990.13
2022-10-17T01:43:05.137Z,100980.34
2022-10-17T01:45:38.702Z,100989.19
2022-10-17T01:48:12.377Z,100989.19
2022-10-17T01:50:43.585Z,100985.66
2022-10-17T01:53:19.379Z,100982.97
2022-10-17T01:55:49.097Z,100984.72
2022-10-17T01:58:27.752Z,100977.66
2022-10-17T02:00:57.997Z,100974.94
2022-10-17T02:03:27.483Z,100965.22
2022-10-17T02:05:54.800Z,100966.09
2022-10-17T02:08:26.580Z,100968.72
2022-10-17T02:11:02.601Z,100971.38
2022-10-17T02:14:00.255Z,100964.25
2022-10-17T02:16:35.647Z,100966.88
2022-10-17T02:19:31.345Z,100969.53
2022-10-17T02:22:04.188Z,100964.16
2022-10-17T02:25:01.834Z,100965.97
2022-10-17T02:27:53.991Z,100962.38
2022-10-17T02:30:33.784Z,100964.13
2022-10-17T02:33:10.183Z,100956.13
2022-10-17T02:35:42.679Z,100955.25
2022-10-17T02:38:12.226Z,100951.66
2022-10-17T02:40:40.647Z,100953.41
2022-10-17T02:43:07.824Z,100949.84
2022-10-17T02:45:37.259Z,100951.59
2022-10-17T02:48:16.899Z,100947.16
2022-10-17T02:51:02.072Z,100951.56
2022-10-17T02:53:37.012Z,100955.06
2022-10-17T02:56:12.048Z,100949.75
2022-10-17T02:58:40.152Z,100952.38
2022-10-17T03:01:07.348Z,100948.81
2022-10-17T03:03:34.944Z,100945.28
2022-10-17T03:06:01.839Z,100942.59
2022-10-17T03:08:28.656Z,100945.25
2022-10-17T03:10:56.565Z,100948.75
2022-10-17T03:13:25.827Z,100955.81
2022-10-17T03:15:52.414Z,100946.97
2022-10-17T03:18:18.982Z,100953.16
2022-10-17T03:20:47.518Z,100952.25
2022-10-17T03:23:14.290Z,100952.25
2022-10-17T03:25:41.115Z,100952.25
2022-10-17T03:28:09.108Z,100954.88
2022-10-17T03:30:38.763Z,100951.34
2022-10-17T03:33:05.469Z,100957.53
2022-10-17T03:35:32.005Z,100953.06
2022-10-17T03:37:59.092Z,100948.66
2022-10-17T03:40:27.439Z,100946.91
2022-10-17T03:42:54.106Z,100941.59
2022-10-17T03:45:20.812Z,100936.28
2022-10-17T03:47:48.034Z,100946.91
2022-10-17T03:50:15.297Z,100953.97
2022-10-17T03:52:46.837Z,100963.69
2022-10-17T03:55:13.562Z,100969.91
2022-10-17T03:57:42.229Z,100963.69
2022-10-17T04:00:12.760Z,100967.22
2022-10-17T04:02:41.943Z,100960.16
2022-10-17T04:05:13.866Z,100965.47
2022-10-17T04:07:40.799Z,100961.94
2022-10-17T04:10:08.557Z,100966.34
2022-10-17T04:12:35.210Z,100962.81
2022-10-17T04:15:01.796Z,100962.81
2022-10-17T04:17:34.562Z,100956.63
2022-10-17T04:20:05.186Z,100971.75
2022-10-17T04:22:32.104Z,100969.16
2022-10-17T04:24:58.761Z,100960.28
2022-10-17T04:27:38.174Z,100965.66
2022-10-17T04:30:06.419Z,100955.06
2022-10-17T04:32:37.636Z,100958.63
2022-10-17T04:35:12.457Z,100957.78
2022-10-17T04:37:43.586Z,100962.22
2022-10-17T04:40:16.640Z,100960.47
2022-10-17T04:42:43.268Z,100971.09
2022-10-17T04:45:12.977Z,100972.94
2022-10-17T04:47:40.382Z,100968.53
2022-10-17T04:50:07.367Z,100972.09
2022-10-17T04:52:37.471Z,100973.88
2022-10-17T04:55:06.281Z,100970.38
2022-10-17T04:57:36.522Z,100972.13
2022-10-17T05:00:13.838Z,100962.41
2022-10-17T05:02:55.335Z,100969.53
2022-10-17T05:05:22.093Z,100965.09
2022-10-17T05:07:51.340Z,100965.97
2022-10-17T05:10:20.182Z,100960.69
2022-10-17T05:12:50.467Z,100964.22
2022-10-17T05:15:19.039Z,100969.53
2022-10-17T05:17:45.874Z,100958.91
2022-10-17T05:20:12.906Z,100960.72
2022-10-17T05:22:42.095Z,100960.72
2022-10-17T05:25:10.196Z,100960.72
2022-10-17T05:27:36.780Z,100965.13
2022-10-17T05:30:03.984Z,100963.38
2022-10-17T05:32:33.715Z,100960.72
2022-10-17T05:35:00.954Z,100969.59
2022-10-17T05:37:29.344Z,100978.44
2022-10-17T05:39:56.875Z,100977.59
2022-10-17T05:42:24.661Z,100972.28
2022-10-17T05:44:51.304Z,100975.84
2022-10-17T05:47:19.492Z,100984.75
2022-10-17T05:49:50.067Z,100983.00
2022-10-17T05:52:23.018Z,100980.34
2022-10-17T05:55:11.495Z,100982.13
2022-10-17T05:57:39.139Z,100991.00
2022-10-17T06:00:09.881Z,100992.78
2022-10-17T06:02:45.834Z,100990.13
2022-10-17T06:05:14.740Z,100995.44
2022-10-17T06:07:41.762Z,100994.59
2022-10-17T06:10:10.108Z,100995.44
2022-10-17T06:12:36.948Z,101004.31
2022-10-17T06:15:03.978Z,101005.22
2022-10-17T06:17:30.837Z,101003.47
2022-10-17T06:19:57.870Z,101005.28
2022-10-17T06:22:24.512Z,101005.28
2022-10-17T06:24:52.599Z,101010.63
2022-10-17T06:27:20.246Z,101008.88
2022-10-17T06:29:47.646Z,101009.75
2022-10-17T06:32:15.245Z,101017.75
2022-10-17T06:34:45.065Z,101005.34
2022-10-17T06:37:11.638Z,101015.13
2022-10-17T06:39:40.011Z,101017.81
2022-10-17T06:42:16.377Z,101021.38
2022-10-17T06:44:46.914Z,101019.63
2022-10-17T06:47:32.154Z,101037.34
2022-10-17T06:50:03.978Z,101032.91
2022-10-17T06:52:42.748Z,101030.28
2022-10-17T06:55:42.837Z,101025.00
2022-10-17T06:58:22.614Z,101015.28
2022-10-17T07:03:35.040Z,101027.72
2022-10-17T07:06:02.065Z,101030.44
2022-10-17T07:08:28.814Z,101026.94
2022-10-17T07:10:55.923Z,101035.81
2022-10-17T07:13:22.986Z,101038.56
2022-10-17T07:15:50.597Z,101035.09
2022-10-17T07:18:17.428Z,101030.69
2022-10-17T07:20:43.967Z,101038.72
2022-10-17T07:23:10.964Z,101026.31
2022-10-17T07:25:40.037Z,101034.34
2022-10-17T07:28:08.503Z,101044.16
2022-10-17T07:30:35.138Z,101033.50
2022-10-17T07:33:09.302Z,101035.28
2022-10-17T07:35:38.135Z,101031.75
2022-10-17T07:38:04.879Z,101045.09
2022-10-17T07:40:32.332Z,101048.66
2022-10-17T07:43:00.398Z,101050.44
2022-10-17T07:45:27.677Z,101055.78
2022-10-17T07:47:58.204Z,101059.34
2022-10-17T07:50:25.465Z,101067.34
2022-10-17T07:52:52.027Z,101059.38
2022-10-17T07:55:18.619Z,101057.63
2022-10-17T07:57:45.271Z,101053.16
2022-10-17T08:00:12.423Z,101054.97
2022-10-17T08:02:41.854Z,101058.50
2022-10-17T08:05:08.626Z,101057.59
2022-10-17T08:07:35.218Z,101060.22
2022-10-17T08:10:01.885Z,101063.75
2022-10-17T08:12:32.366Z,101069.06
2022-10-17T08:14:59.471Z,101069.03
2022-10-17T08:17:26.117Z,101058.31
2022-10-17T08:19:52.806Z,101059.16
2022-10-17T08:22:19.285Z,101061.78
2022-10-17T08:24:46.475Z,101059.94
2022-10-17T08:27:13.734Z,101055.44
2022-10-17T08:29:40.862Z,101050.06
2022-10-17T08:32:10.018Z,101058.94
2022-10-17T08:34:36.841Z,101057.13
2022-10-17T08:37:03.734Z,101054.44
2022-10-17T08:39:30.413Z,101056.19
2022-10-17T08:42:05.847Z,101060.63
2022-10-17T08:45:00.388Z,101064.16
2022-10-17T08:47:35.213Z,101060.53
2022-10-17T08:50:04.415Z,101053.34
2022-10-17T08:53:05.607Z,101046.09
2022-10-17T08:55:45.361Z,101045.97
2022-10-17T08:58:21.570Z,101055.63
2022-10-17T09:00:53.887Z,101053.66
2022-10-17T09:03:46.526Z,101054.38
2022-10-17T09:06:21.562Z,101049.78
2022-10-17T09:09:07.411Z,101041.53
2022-10-17T09:11:56.051Z,101037.66
2022-10-17T09:14:34.391Z,101036.53
2022-10-17T09:17:52.684Z,101037.13
2022-10-17T09:20:28.082Z,101040.50
2022-10-17T09:23:17.225Z,101031.31
2022-10-17T09:25:54.093Z,101031.09
2022-10-17T09:28:31.638Z,101035.38
2022-10-17T09:31:20.011Z,101037.91
2022-10-17T09:33:54.198Z,101044.91
2022-10-17T09:36:23.139Z,101034.97
2022-10-17T09:38:53.620Z,101035.72
2022-10-17T09:44:33.718Z,101029.16
2022-10-17T09:47:11.243Z,101031.63
2022-10-17T09:49:40.492Z,101026.06
2022-10-17T09:52:17.412Z,101035.75
2022-10-17T09:54:50.327Z,101038.34
2022-10-17T09:57:19.091Z,101031.91
2022-10-17T09:59:58.160Z,101035.38
2022-10-17T10:02:26.384Z,101030.81
2022-10-17T10:05:03.683Z,101035.22
2022-10-17T10:07:39.483Z,101041.41
2022-10-17T10:10:27.612Z,101046.72
2022-10-17T10:13:17.904Z,101045.88
2022-10-17T10:15:46.735Z,101048.50
2022-10-17T10:18:43.889Z,101054.78
2022-10-17T10:21:15.313Z,101050.28
2022-10-17T10:23:44.344Z,101058.28
2022-10-17T10:26:24.885Z,101058.22
2022-10-17T10:28:56.757Z,101059.88
2022-10-17T10:31:30.583Z,101062.38
2022-10-17T10:34:00.790Z,101054.13
2022-10-17T10:37:02.349Z,101053.88
2022-10-17T10:39:37.778Z,101054.47
2022-10-17T10:42:08.708Z,101064.94
2022-10-17T10:44:38.240Z,101058.47
2022-10-17T10:47:21.564Z,101049.22
2022-10-17T10:49:51.508Z,101046.44
2022-10-17T10:52:44.445Z,101049.03
2022-10-17T10:55:26.151Z,101047.94
2022-10-17T10:57:59.460Z,101056.78
2022-10-17T11:00:29.138Z,101060.38
2022-10-17T11:03:04.539Z,101068.41
2022-10-17T11:05:40.126Z,101064.84
2022-10-17T11:08:20.421Z,101064.88
2022-10-17T11:11:23.809Z,101075.63
2022-10-17T11:13:54.131Z,101075.59
2022-10-17T11:16:20.737Z,101072.72
2022-10-17T11:18:57.770Z,101076.25
2022-10-17T11:21:38.233Z,101068.06
2022-10-17T11:24:14.985Z,101082.25
2022-10-17T11:26:49.512Z,101085.72
2022-10-17T11:29:16.075Z,101072.09
2022-10-17T11:31:47.971Z,101075.53
2022-10-17T11:34:20.612Z,101072.63
2022-10-17T11:36:52.162Z,101080.38
2022-10-17T11:39:23.560Z,101084.63
2022-10-17T11:41:55.507Z,101069.03
2022-10-17T11:44:31.466Z,101068.88
2022-10-17T11:47:02.632Z,101092.16
2022-10-17T11:49:39.858Z,101061.47
2022-10-17T11:55:26.038Z,101060.97
2022-10-17T11:58:04.431Z,101060.97
2022-10-17T12:00:50.734Z,101060.81
2022-10-17T12:03:45.588Z,101059.63
2022-10-17T12:06:12.075Z,101053.28
2022-10-17T12:08:49.646Z,101050.56
2022-10-17T12:11:34.762Z,101051.47
2022-10-17T12:14:05.885Z,101052.38
2022-10-17T12:16:37.336Z,101045.06
2022-10-17T12:19:06.351Z,101041.47
2022-10-17T12:22:03.576Z,101046.84
2022-10-17T12:24:44.062Z,101039.66
2022-10-17T12:27:34.520Z,101051.41
2022-10-17T12:30:14.479Z,101052.28
2022-10-17T12:33:07.415Z,101055.91
2022-10-17T12:35:37.140Z,101061.25
2022-10-17T12:38:18.744Z,101072.91
2022-10-17T12:40:48.997Z,101069.22
2022-10-17T12:43:15.764Z,101064.63
2022-10-17T12:45:56.051Z,101065.50
2022-10-17T12:48:34.635Z,101066.28
2022-10-17T12:51:30.762Z,101064.38
2022-10-17T12:54:12.271Z,101058.72
2022-10-17T12:56:40.261Z,101051.34
2022-10-17T12:59:27.794Z,101047.72
2022-10-17T13:02:00.077Z,101043.31
2022-10-17T13:04:28.852Z,101038.22
2022-10-17T13:06:58.647Z,101045.34
2022-10-17T13:09:31.960Z,101054.19
2022-10-17T13:12:04.694Z,101051.59
2022-10-17T13:14:33.958Z,101056.16
2022-10-17T13:17:03.287Z,101059.69
2022-10-17T13:19:42.340Z,101065.00
2022-10-17T13:22:17.878Z,101054.19
2022-10-17T13:24:44.957Z,101068.53
2022-10-17T13:27:23.384Z,101066.84
2022-10-17T13:29:49.933Z,101073.16
2022-10-17T13:32:16.685Z,101078.53
2022-10-17T13:34:43.610Z,101075.00
2022-10-17T13:37:15.762Z,101071.53
2022-10-17T13:39:54.827Z,101067.94
2022-10-17T13:42:29.443Z,101079.63
2022-10-17T13:44:57.788Z,101075.22
2022-10-17T13:47:27.662Z,101087.94
2022-10-17T13:49:55.813Z,101096.09
2022-10-17T13:52:28.136Z,101102.53
2022-10-17T13:55:05.737Z,101103.56
2022-10-17T13:57:32.772Z,101104.56
2022-10-17T14:00:20.532Z,101122.66
2022-10-17T14:02:48.388Z,101119.16
2022-10-17T14:05:20.803Z,101125.53
2022-10-17T14:08:10.557Z,101123.81
2022-10-17T14:10:40.079Z,101130.19
2022-10-17T14:13:15.057Z,101126.63
2022-10-17T14:15:46.357Z,101118.72
2022-10-17T14:18:22.353Z,101121.59
2022-10-17T14:23:43.737Z,101108.38
2022-10-17T14:26:21.976Z,101112.03
2022-10-17T14:29:05.501Z,101123.81
2022-10-17T14:31:36.943Z,101128.31
2022-10-17T14:34:04.940Z,101123.78
2022-10-17T14:36:37.650Z,101129.16
2022-10-17T14:39:11.845Z,101132.78
2022-10-17T14:41:44.653Z,101131.06
2022-10-17T14:44:23.361Z,101134.66
2022-10-17T14:46:54.975Z,101144.63
2022-10-17T14:49:27.912Z,101139.38
2022-10-17T14:52:18.367Z,101139.53
2022-10-17T14:54:49.803Z,101145.00
2022-10-17T14:57:32.855Z,101143.28
2022-10-17T14:59:59.846Z,101145.97
2022-10-17T15:02:30.116Z,101148.66
2022-10-17T15:04:57.174Z,101148.63
2022-10-17T15:07:24.240Z,101154.84
2022-10-17T15:09:52.953Z,101158.50
2022-10-17T15:12:25.126Z,101148.66
2022-10-17T15:14:52.854Z,101150.53
2022-10-17T15:17:26.744Z,101148.91
2022-10-17T15:19:54.085Z,101162.53
2022-10-17T15:22:20.633Z,101168.88
2022-10-17T15:24:47.456Z,101175.22
2022-10-17T15:27:25.025Z,101160.97
2022-10-17T15:29:52.853Z,101165.56
2022-10-17T15:32:19.393Z,101170.16
2022-10-17T15:34:45.945Z,101172.00
2022-10-17T15:37:34.220Z,101177.50
2022-10-17T15:40:00.690Z,101167.78
2022-10-17T15:42:30.278Z,101178.66
2022-10-17T15:44:57.677Z,101190.50
2022-10-17T15:47:31.100Z,101192.50
2022-10-17T15:49:58.035Z,101197.16
2022-10-17T15:52:25.058Z,101199.09
2022-10-17T15:54:52.454Z,101201.91
2022-10-17T15:57:25.984Z,101211.88
2022-10-17T15:59:54.245Z,101204.78
2022-10-17T16:02:22.520Z,101208.47
2022-10-17T16:04:50.273Z,101215.75
2022-10-17T16:07:18.355Z,101214.03
2022-10-17T16:09:45.505Z,101217.72
2022-10-17T16:12:16.926Z,101213.31
2022-10-17T16:14:43.591Z,101224.16
2022-10-17T16:17:14.582Z,101227.84
2022-10-17T16:19:41.742Z,101226.13
2022-10-17T16:22:19.947Z,101234.31
2022-10-17T16:24:46.728Z,101231.72
2022-10-17T16:27:13.375Z,101227.38
2022-10-17T16:29:39.934Z,101231.00
2022-10-17T16:32:06.913Z,101238.25
2022-10-17T16:34:33.869Z,101243.66
2022-10-17T16:37:00.489Z,101245.50
2022-10-17T16:41:57.775Z,101247.34
2022-10-17T16:44:25.438Z,101251.91
2022-10-17T16:46:51.966Z,101252.91
2022-10-17T16:49:18.557Z,101253.91
2022-10-17T16:51:45.171Z,101261.13
2022-10-17T16:54:11.822Z,101268.38
2022-10-17T16:56:39.266Z,101270.22
2022-10-17T16:59:05.859Z,101264.03
2022-10-17T17:01:32.370Z,101273.03
2022-10-17T17:03:59.237Z,101279.31
2022-10-17T17:06:29.353Z,101287.38
2022-10-17T17:08:57.402Z,101294.59
2022-10-17T17:11:26.255Z,101288.31
2022-10-17T17:13:55.655Z,101292.78
2022-10-17T17:16:24.496Z,101287.47
2022-10-17T17:19:05.017Z,101292.00
2022-10-17T17:21:32.581Z,101291.13
2022-10-17T17:24:00.904Z,101292.06
2022-10-17T17:26:30.069Z,101301.94
2022-10-17T17:28:58.984Z,101296.63
2022-10-17T17:31:28.506Z,101296.63
2022-10-17T17:36:28.741Z,101313.63
2022-10-17T17:38:58.465Z,101309.19
2022-10-17T17:41:25.767Z,101313.66
2022-10-17T17:43:52.659Z,101321.72
2022-10-17T17:46:21.196Z,101325.31
2022-10-17T17:48:49.719Z,101328.03
2022-10-17T17:51:19.063Z,101326.28
2022-10-17T17:53:45.858Z,101334.34
2022-10-17T17:56:18.022Z,101331.66
2022-10-17T17:58:45.826Z,101338.81
2022-10-17T18:01:19.724Z,101347.81
2022-10-17T18:03:46.981Z,101341.56
2022-10-17T18:06:14.134Z,101336.19
2022-10-17T18:08:44.761Z,101345.13
2022-10-17T18:11:12.055Z,101331.72
2022-10-17T18:13:38.609Z,101339.84
2022-10-17T18:16:13.212Z,101336.28
2022-10-17T18:18:41.735Z,101339.91
2022-10-17T18:21:10.060Z,101342.69
2022-10-17T18:23:40.732Z,101342.78
2022-10-17T18:26:07.603Z,101341.91
2022-10-17T18:28:35.996Z,101341.97
2022-10-17T18:31:16.765Z,101348.31
2022-10-17T18:33:44.621Z,101357.31
2022-10-17T18:36:13.714Z,101356.50
2022-10-17T18:38:40.834Z,101354.81
2022-10-17T18:41:10.601Z,101363.81
2022-10-17T18:43:38.860Z,101363.00
2022-10-17T18:46:13.888Z,101374.69
2022-10-17T18:48:44.229Z,101377.44
2022-10-17T18:51:11.721Z,101377.47
2022-10-17T18:53:46.342Z,101380.22
2022-10-17T18:56:13.853Z,101370.41
2022-10-17T18:58:41.126Z,101380.28
2022-10-17T19:01:12.016Z,101382.09
2022-10-17T19:03:38.685Z,101383.03
2022-10-17T19:06:07.414Z,101388.44
2022-10-17T19:08:35.467Z,101399.22
2022-10-17T19:11:10.593Z,101402.81
2022-10-17T19:13:37.584Z,101396.56
2022-10-17T19:16:15.317Z,101388.53
2022-10-17T19:18:42.179Z,101392.16
2022-10-17T19:21:11.156Z,101388.63
2022-10-17T19:23:38.639Z,101392.25
2022-10-17T19:26:12.956Z,101384.19
2022-10-17T19:28:44.294Z,101388.72
2022-10-17T19:31:15.313Z,101379.78
2022-10-17T19:33:44.307Z,101384.31
2022-10-17T19:36:11.861Z,101389.66
2022-10-17T19:38:39.028Z,101395.91
2022-10-17T19:41:11.068Z,101399.50
2022-10-17T19:43:39.066Z,101397.75
2022-10-17T19:46:08.967Z,101393.31
2022-10-17T19:48:36.940Z,101394.25
2022-10-17T19:51:08.344Z,101402.31
2022-10-17T19:53:35.242Z,101396.09
2022-10-17T19:56:01.994Z,101401.44
2022-10-17T19:58:28.949Z,101400.59
2022-10-17T20:00:58.500Z,101404.19
2022-10-17T20:03:25.555Z,101397.03
2022-10-17T20:05:52.231Z,101406.00
2022-10-17T20:08:19.335Z,101399.78
2022-10-17T20:10:46.340Z,101406.00
2022-10-17T20:13:13.720Z,101411.41
2022-10-17T20:15:41.051Z,101424.84
2022-10-17T20:18:08.578Z,101432.00
2022-10-17T20:20:36.946Z,101436.47
2022-10-17T20:23:04.353Z,101432.88
2022-10-17T20:25:30.951Z,101433.78
2022-10-17T20:27:58.315Z,101443.63
2022-10-17T20:30:24.925Z,101454.34
2022-10-17T20:32:55.024Z,101461.47
2022-10-17T20:35:22.946Z,101465.97
2022-10-17T20:37:49.495Z,101465.06
2022-10-17T20:40:34.214Z,101458.88
2022-10-17T20:43:02.780Z,101475.81
2022-10-17T20:45:43.736Z,101471.34
2022-10-17T20:48:16.245Z,101469.56
2022-10-17T20:50:43.884Z,101476.69
2022-10-17T20:53:35.457Z,101481.19
2022-10-17T20:56:07.355Z,101491.00
2022-10-17T20:58:34.579Z,101494.56
2022-10-17T21:01:09.164Z,101494.56
2022-10-17T21:03:42.408Z,101497.25
2022-10-17T21:06:13.029Z,101505.31
2022-10-17T21:08:40.220Z,101508.00
2022-10-17T21:11:15.983Z,101509.78
2022-10-17T21:13:43.683Z,101513.38
2022-10-17T21:16:16.696Z,101509.78
2022-10-17T21:18:44.087Z,101503.53
2022-10-17T21:21:17.056Z,101502.63
2022-10-17T21:23:48.374Z,101510.66
2022-10-17T21:26:16.161Z,101508.91
2022-10-17T21:28:44.548Z,101509.81
2022-10-17T21:31:20.516Z,101503.56
2022-10-17T21:33:51.285Z,101505.34
2022-10-17T21:36:18.959Z,101505.34
2022-10-17T21:38:47.145Z,101506.25
2022-10-17T21:41:16.069Z,101507.16
2022-10-17T21:43:43.389Z,101519.66
2022-10-17T21:46:13.232Z,101517.00
2022-10-17T21:48:39.814Z,101518.78
2022-10-17T21:51:09.050Z,101520.56
2022-10-17T21:53:36.073Z,101513.41
2022-10-17T21:56:05.122Z,101517.00
2022-10-17T21:58:32.478Z,101521.47
2022-10-17T22:01:25.507Z,101529.53
2022-10-17T22:03:58.790Z,101531.31
2022-10-17T22:06:44.260Z,101533.09
2022-10-17T22:09:25.268Z,101533.09
2022-10-17T22:11:55.219Z,101534.91
2022-10-17T22:14:23.913Z,101542.91
2022-10-17T22:16:50.829Z,101538.47
2022-10-17T22:19:21.680Z,101539.34
2022-10-17T22:21:49.143Z,101544.72
2022-10-17T22:24:17.326Z,101541.16
2022-10-17T22:26:44.595Z,101541.16
2022-10-17T22:29:11.711Z,101550.97
2022-10-17T22:31:38.982Z,101542.94
2022-10-17T22:34:07.246Z,101542.06
2022-10-17T22:36:34.632Z,101545.59
2022-10-17T22:39:01.512Z,101538.50
2022-10-17T22:41:28.112Z,101545.63
2022-10-17T22:43:54.780Z,101536.69
2022-10-17T22:46:21.455Z,101536.69
2022-10-17T22:48:48.091Z,101537.56
2022-10-17T22:51:14.969Z,101534.03
2022-10-17T22:53:42.012Z,101537.59
2022-10-17T22:56:14.675Z,101533.13
2022-10-17T22:58:41.323Z,101531.34
2022-10-17T23:01:10.626Z,101529.56
2022-10-17T23:03:37.145Z,101533.13
2022-10-17T23:06:04.019Z,101540.28
2022-10-17T23:08:33.211Z,101538.44
2022-10-17T23:11:00.128Z,101539.34
2022-10-17T23:13:27.086Z,101546.47
2022-10-17T23:15:55.308Z,101542.91
2022-10-17T23:18:22.938Z,101545.56
2022-10-17T23:20:50.039Z,101542.91
2022-10-17T23:23:17.102Z,101548.25
2022-10-17T23:25:44.177Z,101549.13
2022-10-17T23:28:11.371Z,101558.06
2022-10-17T23:30:39.145Z,101562.50
2022-10-17T23:33:06.152Z,101566.06
2022-10-17T23:35:33.857Z,101569.66
2022-10-17T23:38:00.356Z,101573.22
2022-10-17T23:40:28.152Z,101567.84
2022-10-17T23:42:54.694Z,101566.06
2022-10-17T23:45:21.926Z,101574.09
2022-10-17T23:47:48.512Z,101563.38
2022-10-17T23:50:16.357Z,101573.22
2022-10-17T23:52:42.949Z,101560.72
2022-10-17T23:55:10.309Z,101566.06
2022-10-17T23:57:36.934Z,101567.84
